Archival Weather

Aeroparque Jorge Newbery

Buenos Aires, Argentina (SABE)

Report from: Thursday, September 21, 2023 8:00 PM -03
Current time: Saturday, March 2, 2024 7:48 AM -03

Current weather – Weather history – Daily summaries
Weather forecast

Temperature18.0°C (64.4°F)
Dew point16.0°C (60.8°F)
Winds 3 kts (1.5 m/s, 3.5 mph) Vrb
Winds variableWinds variable from West-Southwest (250°) to North-Northeast (30°)
Visibility3.7 mi. (6 km)
Clouds Scattered clouds 4,000 ft. (1,219 m)
Ceiling: Broken clouds 10,000 ft. (3,048 m)
Altimeter29.83 in.Hg (1010 mB)
Relative humidity88 %
Density altitude712 ft. (217 m)
Remarks No significant changes expected in the next two hours
Flight conditions Marginal Visual Meteorological Conditions
Raw dataSABE 212300Z 36003KT 250V030 6000 SCT040 BKN100 18/16 Q1010 NOSIG RMK PP000
An error has occurred. This application may no longer respond until reloaded. Reload 🗙